Henderson, NV

4:52 AM PDT on August 02, 2015 (GMT -0700)
MacDonald Ranch | | Change Station
CLOSE
Current Station
Personal Weather Station
Location: Henderson, NV
Elevation: 2357 ft
Nearby Weather Stations

Elev 2357 ft 36.00 °N, 115.08 °W | Updated 2 minutes ago

Partly Cloudy
Partly Cloudy
80.3 °F
Feels Like 80 °F
N
0.0
Wind Variable Wind from South
Gusts 2.0 mph

Today
High -- | Low -- °F
--% Chance of Precip.
Yesterday
High -- | Low -- °F
Precip. -- in
5:47 AM 7:44 PM
Waning Gibbous, 94% visible
Pressure 29.91 in
Visibility 10.0 miles
Clouds Clear
Heat Index 80 °F
Dew Point 52 °F
Humidity 37%
Rainfall 0.00 in
Snow Depth Not available.
UV 0 out of 12
Pollen 4.30 out of 12
Air Quality Not available.
Flu Activity Not available.
METAR KBVU 021135Z AUTO 30003KT 10SM CLR 24/15 A2991 RMK AO2

More Conditions Fewer Conditions

Pressure 29.91 in
Visibility 10.0 miles
Clouds Clear
Heat Index 80 °F
Dew Point 52 °F
Humidity 37%
Rainfall 0.00 in
Snow Depth Not available.
UV 0 out of 12
Pollen 4.30 out of 12
Air Quality Not available.
Flu Activity Not available.
METAR KBVU 021135Z AUTO 30003KT 10SM CLR 24/15 A2991 RMK AO2

More Conditions Fewer Conditions

10-Day Weather Forecast

×

Almanac

Astronomy

Aug. 02, 2015 Rise Set
Actual Time
Civil Twilight
Nautical Twilight
Astronomical Twilight
Moon
Length of Visible Light
Length of Day
Tomorrow will be .
, % of the Moon is Illuminated

Today's Extremes

State Highs State Lows

Community

WunderPhotos

Upload Photos

1,843,233 photos uploaded!

WunderBlogs® & News

Nearby

Air Quality

  Air Quality AQ Index Pollutant
Not available.

Snow Depth

Station Depth Elevation

Earthquake Activity

City Distance Mag. Time & Date
Minimum magnitude displayed is 2.5.

Coastal Water Temperatures

Place Temperature

Stations

Nearby Weather Stations

Station Location Temp. Windchill Dew Point Humidity Wind Precip. Elev Updated Type
                   
Flood Watch / Flood Statement
Statement as of 4:47 AM PDT on August 02, 2015

... The Flood Advisory has been cancelled for west central Mohave and
southeastern Clark counties...

The heavy rain has ended... and flooding is no longer expected to
pose a threat. Localized ponding of water on area roadways remains
possible. Receding water in area washes is expected as the morning
progresses.

Lat... Lon 3564 11418 3598 11435 3604 11412 3579 11391


Mp